San Carlos de Bolivar, Argentina
Current Conditions -  °F | °C
As of 1:00 PM on Saturday 25 Oct 2014 (Local Time) from SAEZ Reporting Station
Scattered Clouds Scattered Clouds  
Wind Chill: 30°   Ceiling: Unl
Heat Index: 31°   Visibility: 6mi
Dew Point: 18°   Wind: 5mph
Humidity: 48%   Direction: 70°ENE
Pressure: 29.91"   Gusts: NA
Location:  36.25°S, 61.1°W
Report Text: SAEZ 251600Z 07004KT 040V120 9999 SCT045 30/18 Q1013
Loading
Personal Weather Stations






























Interactive Weather Map
Tropical Storm Tracking
New forecast layout! Learn more

10-Day Weather Forecast

Advertisements
Track Severe Weather on mobile